KBNA/BNA METAR and TAF weather

Enter ICAO airport designator
Station Type Date Time Source
KBNA METAR 2018/01/23 00:53 UTC NOAA

KBNA 230053Z 21013G23KT 10SM BKN034 BKN047 BKN060 17/11 A2973 RMK AO2 PK WND 18036/0010 SLP064 T01670111


Station Type Date Time Source
KBNA Decoded METAR 2018/01/23 00:53 UTC NOAA

NASHVILLE INTERNATIONAL AIRPORT, TN, United States (KBNA) 36-07N 086-41W 210M
Jan 22, 2018 - 07:53 PM EST / 2018.01.23 0053 UTC
Wind: from the SSW (210 degrees) at 15 MPH (13 KT) gusting to 26 MPH (23 KT):0
Visibility: 10 mile(s):0
Sky conditions: mostly cloudy
Temperature: 62.1 F (16.7 C)
Dew Point: 52.0 F (11.1 C)
Relative Humidity: 69%
Pressure (altimeter): 29.73 in. Hg (1006 hPa)
ob: KBNA 230053Z 21013G23KT 10SM BKN034 BKN047 BKN060 17/11 A2973 RMK AO2 PK WND 18036/0010 SLP064 T01670111
cycle: 1

Station Type Date Time Source
KBNA TAF 2018/01/23 01:54 UTC NOAA

TAF
AMD KBNA 230052Z 2301/2324 20016KT P6SM SCT035
TEMPO 2301/2302 BKN035
FM230200 24015KT P6SM SCT040
FM231400 28015KT P6SM BKN040


Example: see airport list